Ellsworth, ME

10:12 PM EST on February 19, 2017 (GMT -0500)
Hancock County-Bar Harbor

Weather History for KBHB - March, 2013

Change the Weather History Date:

Tuesday, March 19, 2013

  Actual Average Record
Temperature  
Mean Temperature 26 °F -  
Max Temperature 28 °F 41 °F 60 °F (2012)
Min Temperature 24 °F 25 °F 1 °F (1967)
Degree Days  
Heating Degree Days 39    
Moisture  
Dew Point 21 °F    
Average Humidity 83    
Maximum Humidity 100    
Minimum Humidity 43    
Precipitation  
Precipitation 0.18 in - - ()
Sea Level Pressure  
Sea Level Pressure 30.04 in    
Wind  
Wind Speed 8 mph (ENE)    
Max Wind Speed 18 mph    
Max Gust Speed 29 mph    
Visibility 4 miles    
Events      
Averages and records for this station are not official NWS values.
T = Trace of Precipitation, MM = Missing Value Source: NWS Daily Summary

Daily Weather History Graph

Daily Weather History Graph

Search for Another Location

Airport or City:

Trip Planner

Search our weather history database for the weather conditions in past years. The results will help you decide how hot, cold, wet, or windy it might be!

Date:

Astronomy

Mar. 19, 2013 Rise Set
Actual Time 6:38 AM EDT 6:44 PM EDT
Civil Twilight 6:09 AM EDT 7:13 PM EDT
Nautical Twilight 5:35 AM EDT 7:47 PM EDT
Astronomical Twilight 5:00 AM EDT 8:22 PM EDT
Moon 11:12 AM EDT (3/19) 1:41 AM EDT (3/19)
Length of Visible Light 13h 04m
Length of Day
12h 06m
Waxing Crescent, 49% of the Moon is Illuminated
Mar 19
Waxing Crescent
Mar 19
First Quarter
Mar 27
Full
Apr 3
Last Quarter
Apr 10
New

Hourly Weather History & Observations

Time (EDT) Temp. Windchill Dew Point Humidity Pressure Visibility Wind Dir Wind Speed Gust Speed Precip Events Conditions
12:15 AM 24.8 °F - 15.8 °F 69% 30.30 in 10.0 mi Calm Calm - N/A   Clear
12:35 AM 24.8 °F - 17.6 °F 74% 30.30 in 10.0 mi Calm Calm - N/A   Clear
12:55 AM 26.6 °F - 17.6 °F 69% 30.30 in 10.0 mi Calm Calm - N/A   Clear
1:15 AM 24.8 °F - 17.6 °F 74% 30.30 in 10.0 mi Calm Calm - N/A   Clear
1:35 AM 24.8 °F - 15.8 °F 69% 30.30 in 10.0 mi Calm Calm - N/A   Clear
1:55 AM 24.8 °F - 15.8 °F 69% 30.30 in 10.0 mi Calm Calm - N/A   Clear
2:15 AM 24.8 °F - 15.8 °F 69% 30.28 in 10.0 mi Calm Calm - N/A   Clear
2:35 AM 26.6 °F - 15.8 °F 64% 30.28 in 10.0 mi Calm Calm - N/A   Clear
3:15 AM 28.4 °F 22.2 °F 10.4 °F 47% 30.26 in 10.0 mi ENE 5.8 mph - N/A   Clear
3:55 AM 28.4 °F 18.0 °F 8.6 °F 43% 30.24 in 10.0 mi ENE 12.7 mph 16.1 mph N/A   Mostly Cloudy
4:35 AM 26.6 °F 16.8 °F 6.8 °F 43% 30.24 in 10.0 mi ENE 10.4 mph 16.1 mph N/A   Scattered Clouds
4:55 AM 26.6 °F 16.8 °F 8.6 °F 47% 30.24 in 10.0 mi ENE 10.4 mph 17.3 mph N/A   Overcast
5:15 AM 26.6 °F 16.8 °F 10.4 °F 51% 30.23 in 10.0 mi ENE 10.4 mph - N/A   Overcast
5:35 AM 26.6 °F 16.2 °F 8.6 °F 47% 30.24 in 10.0 mi East 11.5 mph 16.1 mph N/A   Overcast
5:55 AM 26.6 °F 16.2 °F 10.4 °F 51% 30.22 in 10.0 mi East 11.5 mph - N/A   Overcast
6:15 AM 24.8 °F 15.3 °F 10.4 °F 54% 30.22 in 10.0 mi ENE 9.2 mph - N/A   Overcast
6:35 AM 24.8 °F 12.9 °F 10.4 °F 54% 30.22 in 10.0 mi ENE 13.8 mph - N/A   Overcast
6:55 AM 24.8 °F 15.3 °F 10.4 °F 54% 30.22 in 10.0 mi NE 9.2 mph - N/A   Overcast
7:15 AM 24.8 °F 16.1 °F 10.4 °F 54% 30.22 in 10.0 mi NE 8.1 mph - N/A   Overcast
7:35 AM 24.8 °F 15.3 °F 12.2 °F 59% 30.22 in 10.0 mi ENE 9.2 mph - N/A   Overcast
7:55 AM 24.8 °F 13.4 °F 14.0 °F 64% 30.21 in 9.0 mi ENE 12.7 mph 16.1 mph N/A   Overcast
8:15 AM 24.8 °F 15.3 °F 15.8 °F 69% 30.20 in 4.0 mi ENE 9.2 mph - N/A   Overcast
8:35 AM 24.8 °F 14.6 °F 17.6 °F 74% 30.19 in 4.0 mi ENE 10.4 mph 16.1 mph N/A   Overcast
8:55 AM 24.8 °F 14.0 °F 19.4 °F 80% 30.18 in 3.0 mi ENE 11.5 mph 16.1 mph N/A   Overcast
9:15 AM 24.8 °F 13.4 °F 21.2 °F 86% 30.18 in 1.2 mi ENE 12.7 mph 16.1 mph N/A   Overcast
9:35 AM 24.8 °F 14.0 °F 23.0 °F 93% 30.18 in 0.8 mi NE 11.5 mph - N/A   Overcast
9:55 AM 24.8 °F 14.0 °F 23.0 °F 93% 30.18 in 0.8 mi East 11.5 mph 17.3 mph N/A   Overcast
10:36 AM 26.6 °F 15.7 °F 26.6 °F 100% 30.16 in 1.0 mi East 12.7 mph 20.7 mph 0.01 in   Overcast
10:55 AM 26.6 °F 15.7 °F 24.8 °F 93% 30.15 in 1.2 mi East 12.7 mph 20.7 mph 0.01 in   Overcast
11:15 AM 26.6 °F 15.7 °F 24.8 °F 93% 30.14 in 0.8 mi East 12.7 mph 20.7 mph N/A   Overcast
11:35 AM 26.6 °F 15.7 °F 24.8 °F 93% 30.13 in 1.5 mi East 12.7 mph 24.2 mph N/A   Overcast
11:55 AM 26.6 °F 15.2 °F 24.8 °F 93% 30.11 in 1.5 mi East 13.8 mph 23.0 mph N/A   Overcast
12:35 PM 26.6 °F 17.5 °F 24.8 °F 93% 30.10 in 1.8 mi East 9.2 mph 24.2 mph N/A   Overcast
12:55 PM 26.6 °F 16.8 °F 24.8 °F 93% 30.09 in 0.8 mi East 10.4 mph 19.6 mph N/A   Overcast
1:15 PM 26.6 °F 15.2 °F 24.8 °F 93% 30.07 in 3.0 mi East 13.8 mph 19.6 mph N/A   Overcast
1:35 PM 26.6 °F 15.7 °F 24.8 °F 93% 30.06 in 1.0 mi East 12.7 mph 19.6 mph 0.01 in   Overcast
1:55 PM 26.6 °F 16.2 °F 24.8 °F 93% 30.04 in 0.8 mi East 11.5 mph 19.6 mph 0.01 in   Overcast
2:15 PM 26.6 °F 14.7 °F 24.8 °F 93% 30.02 in 0.5 mi ENE 15.0 mph 21.9 mph N/A   Overcast
2:35 PM 26.6 °F 15.7 °F 24.8 °F 93% 30.00 in 0.5 mi ENE 12.7 mph 20.7 mph N/A   Overcast
2:55 PM 26.6 °F 15.7 °F 24.8 °F 93% 29.98 in 1.0 mi East 12.7 mph 23.0 mph N/A   Overcast
3:16 PM 26.6 °F 14.3 °F 24.8 °F 93% 29.97 in 1.0 mi East 16.1 mph 24.2 mph N/A   Overcast
3:35 PM 24.8 °F 11.5 °F 24.8 °F 100% 29.95 in 1.0 mi ENE 17.3 mph 26.5 mph N/A   Overcast
3:55 PM 24.8 °F 11.1 °F 24.8 °F 100% 29.94 in 0.8 mi ENE 18.4 mph 28.8 mph N/A   Overcast
4:15 PM 24.8 °F 11.9 °F 24.8 °F 100% 29.93 in 1.0 mi ENE 16.1 mph 24.2 mph 0.01 in   Overcast
4:35 PM 24.8 °F 12.4 °F 24.8 °F 100% 29.91 in 1.5 mi ENE 15.0 mph 28.8 mph 0.01 in   Overcast
4:55 PM 26.6 °F 14.3 °F 24.8 °F 93% 29.90 in 1.0 mi ENE 16.1 mph 23.0 mph 0.01 in   Overcast
5:15 PM 26.6 °F 15.2 °F 24.8 °F 93% 29.88 in 0.5 mi NE 13.8 mph 25.3 mph N/A   Overcast
5:35 PM 26.6 °F 15.2 °F 24.8 °F 93% 29.88 in 0.5 mi NE 13.8 mph 21.9 mph 0.01 in   Overcast
5:55 PM 26.6 °F 15.7 °F 24.8 °F 93% 29.87 in 0.2 mi NE 12.7 mph 20.7 mph 0.01 in   Overcast
6:15 PM 24.8 °F 14.6 °F 24.8 °F 100% 29.87 in 0.2 mi NNE 10.4 mph - 0.02 in   Overcast
6:35 PM 26.6 °F 17.5 °F 24.8 °F 93% 29.88 in 0.2 mi NNE 9.2 mph - 0.03 in   Overcast
6:55 PM 24.8 °F 14.6 °F 24.8 °F 100% 29.86 in 0.2 mi NNE 10.4 mph - 0.04 in   Overcast
7:15 PM 24.8 °F 14.6 °F 24.8 °F 100% 29.84 in 0.5 mi NE 10.4 mph - 0.01 in   Overcast
7:35 PM 26.6 °F 17.5 °F 26.6 °F 100% 29.83 in 0.5 mi NNE 9.2 mph 18.4 mph 0.03 in   Overcast
8:15 PM 26.6 °F 15.7 °F 26.6 °F 100% 29.81 in 0.5 mi NNE 12.7 mph - 0.01 in   Overcast
8:35 PM 26.6 °F 15.7 °F 26.6 °F 100% 29.79 in 0.8 mi NE 12.7 mph - 0.02 in   Overcast
8:55 PM 26.6 °F 14.3 °F 26.6 °F 100% 29.77 in 0.5 mi ENE 16.1 mph 23.0 mph 0.04 in   Overcast
9:15 PM 26.6 °F 13.8 °F 26.6 °F 100% 29.74 in 0.8 mi NE 17.3 mph 23.0 mph 0.01 in   Overcast
9:35 PM 26.6 °F 15.2 °F 26.6 °F 100% 29.75 in 1.0 mi East 13.8 mph 23.0 mph 0.02 in   Overcast
9:55 PM 26.6 °F 14.3 °F 26.6 °F 100% 29.72 in 0.8 mi ENE 16.1 mph 23.0 mph 0.02 in   Overcast
10:15 PM 26.6 °F 18.2 °F 26.6 °F 100% 29.71 in 1.0 mi NE 8.1 mph 18.4 mph N/A   Overcast
10:35 PM 26.6 °F 14.7 °F 26.6 °F 100% 29.71 in 1.5 mi ENE 15.0 mph 27.6 mph N/A   Overcast
10:55 PM 26.6 °F 13.8 °F 26.6 °F 100% 29.68 in 1.2 mi NE 17.3 mph 21.9 mph N/A   Overcast
11:15 PM 26.6 °F 15.2 °F 24.8 °F 93% 29.67 in 1.5 mi NE 13.8 mph 20.7 mph 0.01 in   Overcast
11:35 PM 26.6 °F 15.7 °F 24.8 °F 93% 29.65 in 1.8 mi NE 12.7 mph 20.7 mph 0.01 in   Overcast
11:55 PM 26.6 °F 16.8 °F 24.8 °F 93% 29.63 in 1.5 mi NNE 10.4 mph - 0.01 in   Overcast